createdAt,value
2019-05-30T00:01:06.329Z,2.12
2019-05-30T00:04:29.533Z,3.27
2019-05-30T00:07:46.179Z,2.98
2019-05-30T00:11:03.135Z,3.08
2019-05-30T00:14:19.946Z,3.42
2019-05-30T00:17:36.714Z,3.10
2019-05-30T00:20:54.599Z,2.70
2019-05-30T00:24:11.316Z,5.10
2019-05-30T00:27:27.922Z,4.00
2019-05-30T00:30:44.567Z,3.02
2019-05-30T00:34:05.943Z,3.98
2019-05-30T00:37:22.783Z,2.87
2019-05-30T00:40:39.470Z,6.12
2019-05-30T00:43:56.207Z,3.05
2019-05-30T00:47:12.791Z,3.33
2019-05-30T00:50:29.520Z,4.60
2019-05-30T00:53:46.243Z,5.03
2019-05-30T00:57:03.044Z,4.50
2019-05-30T01:00:20.216Z,3.40
2019-05-30T01:03:36.879Z,4.25
2019-05-30T01:06:53.585Z,5.25
2019-05-30T01:10:11.814Z,9.93
2019-05-30T01:13:28.474Z,8.23
2019-05-30T01:16:45.203Z,2.77
2019-05-30T01:20:03.121Z,4.28
2019-05-30T01:23:20.063Z,2.52
2019-05-30T01:26:36.742Z,3.52
2019-05-30T01:29:53.412Z,3.02
2019-05-30T01:33:10.165Z,3.58
2019-05-30T01:36:26.887Z,2.95
2019-05-30T01:39:43.794Z,4.90
2019-05-30T01:43:01.991Z,3.70
2019-05-30T01:46:19.002Z,4.42
2019-05-30T01:49:35.766Z,2.87
2019-05-30T01:52:52.496Z,4.40
2019-05-30T01:56:09.303Z,2.33
2019-05-30T01:59:26.033Z,1.77
2019-05-30T02:02:42.605Z,8.10
2019-05-30T02:05:59.191Z,3.30
2019-05-30T02:09:17.360Z,2.87
2019-05-30T02:12:34.087Z,2.30
2019-05-30T02:15:50.698Z,3.85
2019-05-30T02:19:07.944Z,2.87
2019-05-30T02:22:24.578Z,3.75
2019-05-30T02:25:41.327Z,4.78
2019-05-30T02:28:58.015Z,4.62
2019-05-30T02:32:15.032Z,3.27
2019-05-30T02:35:31.643Z,3.37
2019-05-30T02:38:49.270Z,2.22
2019-05-30T02:42:07.303Z,3.70
2019-05-30T02:45:24.540Z,3.02
2019-05-30T02:48:57.233Z,3.22
2019-05-30T02:51:59.691Z,3.98
2019-05-30T02:55:17.071Z,2.00
2019-05-30T02:58:33.728Z,2.80
2019-05-30T03:02:00.903Z,4.60
2019-05-30T03:05:12.129Z,4.37
2019-05-30T03:08:27.301Z,2.60
2019-05-30T03:11:44.158Z,5.20
2019-05-30T03:15:02.499Z,2.92
2019-05-30T03:18:19.300Z,4.60
2019-05-30T03:21:35.941Z,2.87
2019-05-30T03:24:52.563Z,4.37
2019-05-30T03:28:11.216Z,5.03
2019-05-30T03:31:30.172Z,2.60
2019-05-30T03:34:47.115Z,5.20
2019-05-30T03:38:05.644Z,2.98
2019-05-30T03:41:22.350Z,5.00
2019-05-30T03:44:39.162Z,1.62
2019-05-30T03:48:01.857Z,3.02
2019-05-30T03:51:20.486Z,4.05
2019-05-30T03:54:38.468Z,4.22
2019-05-30T03:58:12.801Z,2.55
2019-05-30T04:01:38.293Z,6.53
2019-05-30T04:05:11.927Z,4.37
2019-05-30T04:08:30.351Z,3.25
2019-05-30T04:11:59.222Z,2.60
2019-05-30T04:15:35.064Z,4.08
2019-05-30T04:18:51.740Z,4.42
2019-05-30T04:22:09.358Z,3.12
2019-05-30T04:25:26.046Z,5.08
2019-05-30T04:28:43.386Z,2.90
2019-05-30T04:32:00.071Z,5.90
2019-05-30T04:35:18.878Z,3.45
2019-05-30T04:38:35.991Z,4.47
2019-05-30T04:41:53.076Z,3.02
2019-05-30T04:45:13.759Z,5.70
2019-05-30T04:48:30.438Z,6.37
2019-05-30T04:51:51.262Z,4.22
2019-05-30T04:55:11.181Z,7.60
2019-05-30T04:58:29.105Z,4.37
2019-05-30T05:01:46.147Z,9.55
2019-05-30T05:05:02.855Z,4.97
2019-05-30T05:08:27.552Z,8.65
2019-05-30T05:11:44.286Z,8.93
2019-05-30T05:15:07.786Z,6.50
2019-05-30T05:18:24.614Z,8.10
2019-05-30T05:21:41.235Z,6.67
2019-05-30T05:24:57.842Z,3.92
2019-05-30T05:28:15.756Z,6.25
2019-05-30T05:31:32.461Z,4.85
2019-05-30T05:34:52.054Z,3.45
2019-05-30T05:38:09.926Z,6.78
2019-05-30T05:41:26.252Z,5.08
2019-05-30T05:44:43.135Z,15.43
2019-05-30T05:47:59.945Z,5.50
2019-05-30T05:51:18.491Z,7.50
2019-05-30T05:54:37.260Z,5.60
2019-05-30T05:57:54.341Z,7.60
2019-05-30T06:01:11.255Z,7.78
2019-05-30T06:04:27.887Z,6.40
2019-05-30T06:07:44.538Z,6.20
2019-05-30T06:11:02.603Z,4.65
2019-05-30T06:14:19.855Z,6.50
2019-05-30T06:17:36.542Z,4.20
2019-05-30T06:20:53.170Z,6.25
2019-05-30T06:24:10.099Z,4.47
2019-05-30T06:27:26.690Z,5.17
2019-05-30T06:30:43.415Z,10.90
2019-05-30T06:34:00.092Z,4.40
2019-05-30T06:37:16.721Z,6.30
2019-05-30T06:40:33.314Z,8.53
2019-05-30T06:43:50.129Z,4.10
2019-05-30T06:47:06.787Z,7.97
2019-05-30T06:50:24.709Z,8.40
2019-05-30T06:53:41.498Z,6.37
2019-05-30T06:56:58.201Z,4.08
2019-05-30T07:00:15.609Z,17.12
2019-05-30T07:03:32.692Z,2.33
2019-05-30T07:06:50.373Z,6.75
2019-05-30T07:10:07.799Z,6.12
2019-05-30T07:13:25.216Z,5.80
2019-05-30T07:16:42.120Z,7.83
2019-05-30T07:19:58.806Z,3.45
2019-05-30T07:23:15.659Z,5.83
2019-05-30T07:26:34.005Z,7.67
2019-05-30T07:29:50.784Z,7.45
2019-05-30T07:33:07.389Z,3.08
2019-05-30T07:36:24.165Z,5.03
2019-05-30T07:39:40.769Z,6.58
2019-05-30T07:42:57.519Z,2.75
2019-05-30T07:46:14.282Z,1.07
2019-05-30T07:49:30.893Z,2.42
2019-05-30T07:52:47.649Z,4.03
2019-05-30T07:56:04.554Z,1.92
2019-05-30T07:59:21.603Z,2.10
2019-05-30T08:02:38.550Z,2.55
2019-05-30T08:05:55.195Z,3.12
2019-05-30T08:09:13.038Z,3.65
2019-05-30T08:12:30.122Z,3.22
2019-05-30T08:15:46.896Z,2.65
2019-05-30T08:19:03.584Z,3.72
2019-05-30T08:22:20.487Z,2.37
2019-05-30T08:25:38.397Z,1.32
2019-05-30T08:28:55.191Z,4.60
2019-05-30T08:32:11.945Z,1.72
2019-05-30T08:35:39.178Z,1.60
2019-05-30T08:38:48.233Z,2.90
2019-05-30T08:42:05.120Z,3.17
2019-05-30T08:45:22.247Z,4.70
2019-05-30T08:48:40.293Z,2.98
2019-05-30T08:51:57.005Z,4.85
2019-05-30T08:55:16.453Z,4.35
2019-05-30T08:58:33.108Z,4.20
2019-05-30T09:01:52.994Z,3.30
2019-05-30T09:05:08.556Z,3.12
2019-05-30T09:08:25.167Z,2.40
2019-05-30T09:11:42.334Z,3.92
2019-05-30T09:14:59.152Z,1.95
2019-05-30T09:18:16.090Z,4.30
2019-05-30T09:21:32.724Z,7.35
2019-05-30T09:24:49.407Z,3.20
2019-05-30T09:28:06.034Z,2.05
2019-05-30T09:31:22.875Z,2.15
2019-05-30T09:34:40.398Z,1.57
2019-05-30T09:37:58.095Z,4.50
2019-05-30T09:41:14.770Z,5.78
2019-05-30T09:44:31.476Z,2.58
2019-05-30T09:47:49.287Z,4.10
2019-05-30T09:51:06.316Z,4.22
2019-05-30T09:54:22.966Z,4.33
2019-05-30T09:57:39.752Z,7.37
2019-05-30T10:00:56.436Z,6.28
2019-05-30T10:04:13.030Z,2.77
2019-05-30T10:07:29.742Z,3.15
2019-05-30T10:10:47.708Z,3.42
2019-05-30T10:14:04.921Z,2.80
2019-05-30T10:17:21.557Z,1.92
2019-05-30T10:20:38.326Z,2.30
2019-05-30T10:23:55.115Z,3.62
2019-05-30T10:27:12.557Z,3.08
2019-05-30T10:30:31.045Z,2.92
2019-05-30T10:33:49.215Z,3.10
2019-05-30T10:37:07.104Z,7.17
2019-05-30T10:40:24.297Z,6.55
2019-05-30T10:43:41.132Z,3.35
2019-05-30T10:46:57.946Z,8.08
2019-05-30T10:50:14.967Z,5.67
2019-05-30T10:53:31.570Z,3.35
2019-05-30T10:56:49.558Z,4.65
2019-05-30T11:00:09.441Z,2.20
2019-05-30T11:03:25.295Z,2.45
2019-05-30T11:07:04.835Z,2.08
2019-05-30T11:10:17.807Z,3.27
2019-05-30T11:13:34.440Z,3.70
2019-05-30T11:16:51.734Z,2.22
2019-05-30T11:20:08.677Z,3.95
2019-05-30T11:23:25.389Z,5.22
2019-05-30T11:26:42.100Z,3.02
2019-05-30T11:29:59.023Z,3.52
2019-05-30T11:33:15.668Z,3.00
2019-05-30T11:36:32.321Z,3.22
2019-05-30T11:39:55.792Z,4.45
2019-05-30T11:43:12.387Z,1.05
2019-05-30T11:46:29.160Z,3.67
2019-05-30T11:49:45.775Z,6.60
2019-05-30T11:53:11.306Z,1.67
2019-05-30T11:56:31.983Z,2.92
2019-05-30T11:59:50.093Z,2.65
2019-05-30T12:03:06.890Z,5.58
2019-05-30T12:06:23.500Z,4.35
2019-05-30T12:09:40.244Z,8.10
2019-05-30T12:12:57.353Z,3.77
2019-05-30T12:16:14.279Z,5.47
2019-05-30T12:19:30.916Z,3.30
2019-05-30T12:22:47.550Z,2.08
2019-05-30T12:26:04.182Z,3.70
2019-05-30T12:29:20.899Z,5.28
2019-05-30T12:32:37.615Z,4.90
2019-05-30T12:35:54.445Z,4.80
2019-05-30T12:39:12.175Z,3.00
2019-05-30T12:42:28.947Z,3.45
2019-05-30T12:45:45.645Z,2.12
2019-05-30T12:49:03.594Z,2.12
2019-05-30T12:52:20.499Z,2.83
2019-05-30T12:55:37.780Z,2.25
2019-05-30T12:58:54.578Z,2.33
2019-05-30T13:02:11.464Z,4.70
2019-05-30T13:05:28.976Z,4.20
2019-05-30T13:08:45.604Z,4.65
2019-05-30T13:12:02.633Z,3.22
2019-05-30T13:15:19.413Z,4.05
2019-05-30T13:18:36.156Z,5.55
2019-05-30T13:21:53.831Z,3.10
2019-05-30T13:25:13.968Z,2.27
2019-05-30T13:28:30.690Z,4.30
2019-05-30T13:31:47.294Z,3.00
2019-05-30T13:35:07.641Z,2.58
2019-05-30T13:38:27.034Z,9.30
2019-05-30T13:41:43.868Z,1.72
2019-05-30T13:45:02.029Z,4.33
2019-05-30T13:48:19.111Z,4.08
2019-05-30T13:51:35.809Z,2.65
2019-05-30T13:54:52.530Z,2.10
2019-05-30T13:58:10.528Z,5.05
2019-05-30T14:01:27.690Z,4.33
2019-05-30T14:04:44.420Z,2.70
2019-05-30T14:08:02.649Z,1.90
2019-05-30T14:11:19.552Z,2.10
2019-05-30T14:14:36.155Z,2.67
2019-05-30T14:17:52.896Z,1.57
2019-05-30T14:21:09.576Z,1.47
2019-05-30T14:24:26.347Z,2.12
2019-05-30T14:27:43.098Z,2.17
2019-05-30T14:30:59.787Z,8.30
2019-05-30T14:34:16.515Z,6.35
2019-05-30T14:37:33.246Z,2.92
2019-05-30T14:40:49.840Z,3.20
2019-05-30T14:44:07.164Z,2.45
2019-05-30T14:47:26.658Z,1.90
2019-05-30T14:50:43.734Z,2.00
2019-05-30T14:54:00.503Z,2.20
2019-05-30T14:57:17.591Z,3.83
2019-05-30T15:00:34.346Z,5.70
2019-05-30T15:03:51.155Z,3.15
2019-05-30T15:07:07.849Z,1.82
2019-05-30T15:10:24.789Z,2.98
2019-05-30T15:13:41.493Z,3.58
2019-05-30T15:16:58.608Z,7.40
2019-05-30T15:20:17.738Z,1.15
2019-05-30T15:23:35.153Z,2.08
2019-05-30T15:26:51.851Z,1.90
2019-05-30T15:30:12.764Z,2.72
2019-05-30T15:33:31.017Z,6.42
2019-05-30T15:36:47.777Z,4.72
2019-05-30T15:40:04.909Z,2.70
2019-05-30T15:43:21.631Z,4.67
2019-05-30T15:46:38.459Z,1.32
2019-05-30T15:49:55.214Z,0.82
2019-05-30T15:53:13.100Z,1.60
2019-05-30T15:56:29.877Z,5.78
2019-05-30T15:59:46.503Z,2.72
2019-05-30T16:03:03.233Z,5.28
2019-05-30T16:06:20.815Z,4.50
2019-05-30T16:09:46.735Z,3.15
2019-05-30T16:12:55.996Z,1.75
2019-05-30T16:16:13.535Z,2.40
2019-05-30T16:19:30.369Z,2.92
2019-05-30T16:22:47.176Z,1.90
2019-05-30T16:26:04.049Z,0.95
2019-05-30T16:29:21.884Z,3.27
2019-05-30T16:32:38.747Z,3.12
2019-05-30T16:35:55.624Z,3.08
2019-05-30T16:39:20.404Z,7.55
2019-05-30T16:42:39.987Z,3.85
2019-05-30T16:45:56.631Z,3.50
2019-05-30T16:49:14.360Z,5.70
2019-05-30T16:52:31.738Z,4.03
2019-05-30T16:56:07.723Z,3.27
2019-05-30T16:59:55.178Z,2.98
2019-05-30T17:03:34.097Z,3.37
2019-05-30T17:06:51.016Z,4.53
2019-05-30T17:10:21.374Z,4.10
2019-05-30T17:13:26.918Z,4.40
2019-05-30T17:16:43.711Z,4.80
2019-05-30T17:20:00.668Z,4.92
2019-05-30T17:23:24.846Z,4.17
2019-05-30T17:26:45.242Z,4.00
2019-05-30T17:30:01.995Z,1.90
2019-05-30T17:33:20.741Z,4.30
2019-05-30T17:36:38.715Z,1.45
2019-05-30T17:39:55.649Z,3.90
2019-05-30T17:43:12.545Z,2.98
2019-05-30T17:46:30.099Z,6.03
2019-05-30T17:49:48.526Z,4.37
2019-05-30T17:53:05.152Z,5.08
2019-05-30T17:56:23.973Z,3.08
2019-05-30T17:59:40.784Z,2.17
2019-05-30T18:02:57.983Z,3.52
2019-05-30T18:06:14.982Z,3.35
2019-05-30T18:09:31.582Z,2.62
2019-05-30T18:12:48.230Z,6.22
2019-05-30T18:16:05.454Z,5.25
2019-05-30T18:19:23.322Z,6.58
2019-05-30T18:22:43.500Z,2.22
2019-05-30T18:29:40.180Z,4.50
2019-05-30T18:32:57.116Z,8.38
2019-05-30T18:36:15.625Z,6.37
2019-05-30T18:39:32.886Z,9.23
2019-05-30T18:42:49.847Z,13.40
2019-05-30T18:46:06.541Z,30.17
2019-05-30T18:49:41.327Z,31.02
2019-05-30T18:53:11.728Z,32.50
2019-05-30T19:00:16.034Z,41.58
2019-05-30T19:04:01.685Z,49.88
2019-05-30T19:11:00.795Z,22.65
2019-05-30T19:15:08.837Z,19.77
2019-05-30T19:19:10.080Z,15.35
2019-05-30T19:22:41.740Z,13.62
2019-05-30T19:27:12.464Z,18.15
2019-05-30T19:30:30.622Z,7.60
2019-05-30T19:33:48.590Z,11.25
2019-05-30T19:37:05.469Z,8.70
2019-05-30T19:40:24.863Z,10.00
2019-05-30T19:43:40.878Z,11.78
2019-05-30T19:46:58.348Z,15.35
2019-05-30T19:50:16.448Z,9.78
2019-05-30T19:53:34.954Z,13.00
2019-05-30T19:56:53.001Z,13.43
2019-05-30T20:00:11.140Z,17.00
2019-05-30T20:03:38.529Z,13.18
2019-05-30T20:06:48.316Z,17.60
2019-05-30T20:14:11.012Z,18.73
2019-05-30T20:17:30.018Z,12.33
2019-05-30T20:20:56.725Z,13.38
2019-05-30T20:24:05.516Z,17.07
2019-05-30T20:27:22.185Z,9.33
2019-05-30T20:30:39.216Z,18.12
2019-05-30T20:33:58.563Z,13.60
2019-05-30T20:37:15.621Z,12.90
2019-05-30T20:40:33.050Z,13.50
2019-05-30T20:43:49.802Z,11.60
2019-05-30T20:47:06.672Z,10.60
2019-05-30T20:50:23.799Z,14.00
2019-05-30T20:53:41.258Z,8.63
2019-05-30T20:56:57.874Z,10.63
2019-05-30T21:00:20.235Z,10.90
2019-05-30T21:03:44.543Z,10.03
2019-05-30T21:07:03.441Z,10.45
2019-05-30T21:10:20.274Z,6.40
2019-05-30T21:13:59.813Z,12.70
2019-05-30T21:17:17.230Z,9.00
2019-05-30T21:20:37.855Z,11.08
2019-05-30T21:23:55.421Z,9.97
2019-05-30T21:27:12.982Z,12.05
2019-05-30T21:30:31.540Z,10.28
2019-05-30T21:33:48.488Z,10.90
2019-05-30T21:37:05.430Z,9.00
2019-05-30T21:40:22.452Z,11.48
2019-05-30T21:43:40.308Z,10.82
2019-05-30T21:46:56.984Z,14.85
2019-05-30T21:50:13.890Z,7.90
2019-05-30T21:53:30.759Z,14.38
2019-05-30T21:56:48.437Z,14.43
2019-05-30T22:00:06.673Z,9.38
2019-05-30T22:03:24.150Z,11.40
2019-05-30T22:06:40.942Z,11.08
2019-05-30T22:09:57.616Z,8.15
2019-05-30T22:13:14.380Z,7.78
2019-05-30T22:16:31.060Z,10.78
2019-05-30T22:19:47.916Z,6.70
2019-05-30T22:23:04.594Z,9.53
2019-05-30T22:26:21.315Z,10.30
2019-05-30T22:29:40.410Z,7.62
2019-05-30T22:32:56.274Z,7.87
2019-05-30T22:36:14.949Z,11.57
2019-05-30T22:39:31.589Z,8.60
2019-05-30T22:42:48.273Z,10.65
2019-05-30T22:46:04.921Z,7.28
2019-05-30T22:49:21.598Z,6.10
2019-05-30T22:52:38.408Z,11.97
2019-05-30T22:55:55.083Z,7.78
2019-05-30T22:59:11.728Z,7.10
2019-05-30T23:02:28.457Z,6.78
2019-05-30T23:05:45.330Z,9.25
2019-05-30T23:09:01.968Z,9.10
2019-05-30T23:12:18.608Z,10.90
2019-05-30T23:15:35.386Z,8.73
2019-05-30T23:18:52.643Z,10.18
2019-05-30T23:22:09.275Z,6.97
2019-05-30T23:25:27.400Z,6.55
2019-05-30T23:28:44.048Z,7.58
2019-05-30T23:32:00.668Z,6.90
2019-05-30T23:35:17.671Z,9.30
2019-05-30T23:38:34.477Z,8.15
2019-05-30T23:41:51.135Z,5.53
2019-05-30T23:45:07.775Z,7.12
2019-05-30T23:48:24.388Z,11.33
2019-05-30T23:51:41.391Z,7.40
2019-05-30T23:54:58.339Z,6.90
2019-05-30T23:58:14.983Z,6.92
